createdAt,value
2022-09-16T14:20:18.852Z,97422.66
2022-09-16T14:25:35.315Z,97407.19
2022-09-16T14:30:40.405Z,97401.88
2022-09-16T14:35:50.699Z,97409.06
2022-09-16T14:40:55.581Z,97400.84
2022-09-16T14:46:03.439Z,97396.28
2022-09-16T14:51:23.167Z,97385.50
2022-09-16T14:56:30.213Z,97389.22
2022-09-16T15:01:35.248Z,97391.00
2022-09-16T15:06:48.818Z,97387.78
2022-09-16T15:12:02.001Z,97393.88
2022-09-16T15:17:10.146Z,97390.56
2022-09-16T15:22:19.316Z,97384.19
2022-09-16T15:27:25.990Z,97380.06
2022-09-16T15:32:32.595Z,97381.44
2022-09-16T15:37:40.231Z,97398.59
2022-09-16T15:42:46.870Z,97382.25
2022-09-16T15:48:01.233Z,97382.03
2022-09-16T15:53:13.032Z,97363.19
2022-09-16T15:58:23.307Z,97369.06
2022-09-16T16:03:29.509Z,97372.09
2022-09-16T16:08:47.288Z,97366.28
2022-09-16T16:13:52.322Z,97372.81
2022-09-16T16:18:57.693Z,97367.44
2022-09-16T16:24:05.582Z,97368.31
2022-09-16T16:29:10.408Z,97369.78
2022-09-16T16:34:15.415Z,97370.41
2022-09-16T16:39:25.412Z,97362.97
2022-09-16T16:44:30.549Z,97364.28
2022-09-16T16:49:36.615Z,97361.88
2022-09-16T16:54:44.144Z,97369.88
2022-09-16T16:59:48.982Z,97374.13
2022-09-16T20:43:10.261Z,97486.50
2022-09-16T20:48:15.121Z,97481.34
2022-09-16T20:53:20.506Z,97484.78
2022-09-16T20:58:27.881Z,97484.13
2022-09-16T21:03:32.754Z,97484.19
2022-09-16T21:08:38.061Z,97480.19
2022-09-16T21:13:47.709Z,97477.84
2022-09-16T21:18:57.105Z,97481.19
2022-09-16T21:24:03.293Z,97483.97
2022-09-16T21:29:13.270Z,97478.03
2022-09-16T21:34:19.998Z,97491.38
2022-09-16T21:39:25.436Z,97488.88
2022-09-16T21:44:32.813Z,97504.84
2022-09-16T21:49:37.580Z,97489.34
2022-09-16T21:54:42.710Z,97489.72
2022-09-16T21:59:50.169Z,97488.41
2022-09-16T22:04:55.148Z,97487.09
2022-09-16T22:09:59.964Z,97480.34
2022-09-16T22:15:09.150Z,97491.25
2022-09-16T22:20:14.789Z,97484.75
2022-09-16T22:25:19.526Z,97499.06
2022-09-16T22:30:26.821Z,97475.38
2022-09-16T22:35:31.595Z,97485.66
2022-09-16T22:40:37.739Z,97475.63
2022-09-16T22:45:45.056Z,97471.72
2022-09-16T22:50:57.763Z,97471.03
2022-09-16T22:56:04.480Z,97479.56
2022-09-16T23:01:15.053Z,97473.63
2022-09-16T23:06:19.806Z,97458.16
2022-09-16T23:11:26.419Z,97454.81
2022-09-16T23:16:35.883Z,97466.50
2022-09-16T23:21:42.209Z,97446.97
2022-09-16T23:26:48.862Z,97453.34
2022-09-16T23:31:57.381Z,97444.94
2022-09-16T23:37:02.152Z,97440.28
2022-09-16T23:42:07.467Z,97431.03
2022-09-16T23:47:15.179Z,97455.25
2022-09-16T23:52:19.923Z,97436.03
2022-09-16T23:57:24.701Z,97440.22
